aviador You're here:

UUDD Decoded Metar

MOSCOW/DOMODEDOVO in RUSSIA
Report Time2018-06-18 18:30:00
UTC Time2018-06-18 19:11:07
Flight Rules vfr VFR
Wind210° at 4 kt
W.Decomp.*RWY 14: 2.0 kt HW 3.5 kt RCW
W.Rank210° ranks 17
Current wind is below 210° avg. (7.0)
Visibility9999 m
Phenomena:N/A
Clouds:N/A
Expected CloudBase > 4,400 ft AGL from Temp-Dew spread
CeilingNone
Temp21°C (ISA +7)
Dew Point10°C (50% RH)
AAT19.7°C
QNH1015 hPa
Density Alt1,480 ft
Elevation551 ft
Report Wrong Elevation
Raw Report
METAR UUDD 181830Z 21002MPS 170V280 CAVOK 21/10 Q1015 R88/010095 NOSIG=

Extra information for UUDD:More info

Metar Taf Metar & Taf Last 4 Metars F.Rules Stats Wind Profile Meteogram Temp Stats Airport Information Weather charts Add Link Nearby VenuesMetar ALERT Operation Metar Decoded Social comments